sensor_id;sensor_type;location;lat;lon;timestamp;P1;durP1;ratioP1;P2;durP2;ratioP2
51479;SDS011;37556;44.570;18.612;2023-03-23T00:01:00;2.55;;;1.05;;
51479;SDS011;37556;44.570;18.612;2023-03-23T00:03:26;1.27;;;1.17;;
51479;SDS011;37556;44.570;18.612;2023-03-23T00:05:54;2.60;;;0.75;;
51479;SDS011;37556;44.570;18.612;2023-03-23T00:08:24;1.35;;;0.77;;
51479;SDS011;37556;44.570;18.612;2023-03-23T00:10:51;4.15;;;3.40;;
51479;SDS011;37556;44.570;18.612;2023-03-23T00:13:21;1.83;;;0.93;;
51479;SDS011;37556;44.570;18.612;2023-03-23T00:15:47;0.63;;;0.60;;
51479;SDS011;37556;44.570;18.612;2023-03-23T00:18:15;1.40;;;1.35;;
51479;SDS011;37556;44.570;18.612;2023-03-23T00:20:56;0.45;;;0.45;;
51479;SDS011;37556;44.570;18.612;2023-03-23T00:23:23;1.25;;;0.75;;
51479;SDS011;37556;44.570;18.612;2023-03-23T00:25:51;3.05;;;1.58;;
51479;SDS011;37556;44.570;18.612;2023-03-23T00:28:18;9.15;;;2.35;;
51479;SDS011;37556;44.570;18.612;2023-03-23T00:33:23;0.35;;;0.35;;
51479;SDS011;37556;44.570;18.612;2023-03-23T00:35:49;1.00;;;0.90;;
51479;SDS011;37556;44.570;18.612;2023-03-23T00:38:18;2.38;;;1.27;;
51479;SDS011;37556;44.570;18.612;2023-03-23T00:40:44;1.70;;;1.30;;
51479;SDS011;37556;44.570;18.612;2023-03-23T00:43:12;2.28;;;1.58;;
51479;SDS011;37556;44.570;18.612;2023-03-23T00:45:38;3.08;;;1.60;;
51479;SDS011;37556;44.570;18.612;2023-03-23T00:48:04;2.15;;;2.05;;
51479;SDS011;37556;44.570;18.612;2023-03-23T00:50:31;1.40;;;1.38;;
51479;SDS011;37556;44.570;18.612;2023-03-23T00:52:57;4.43;;;2.47;;
51479;SDS011;37556;44.570;18.612;2023-03-23T00:55:24;5.30;;;1.88;;
51479;SDS011;37556;44.570;18.612;2023-03-23T00:57:50;4.20;;;1.25;;
51479;SDS011;37556;44.570;18.612;2023-03-23T01:00:17;0.93;;;0.93;;
51479;SDS011;37556;44.570;18.612;2023-03-23T01:02:44;0.70;;;0.70;;
51479;SDS011;37556;44.570;18.612;2023-03-23T01:05:11;2.15;;;1.05;;
51479;SDS011;37556;44.570;18.612;2023-03-23T01:07:37;0.88;;;0.88;;
51479;SDS011;37556;44.570;18.612;2023-03-23T01:10:03;1.02;;;0.60;;
51479;SDS011;37556;44.570;18.612;2023-03-23T01:12:30;0.22;;;0.22;;
51479;SDS011;37556;44.570;18.612;2023-03-23T01:14:56;0.82;;;0.82;;
51479;SDS011;37556;44.570;18.612;2023-03-23T01:17:22;2.70;;;1.27;;
51479;SDS011;37556;44.570;18.612;2023-03-23T01:19:48;1.17;;;0.65;;
51479;SDS011;37556;44.570;18.612;2023-03-23T01:22:14;1.52;;;1.33;;
51479;SDS011;37556;44.570;18.612;2023-03-23T01:27:06;0.43;;;0.43;;
51479;SDS011;37556;44.570;18.612;2023-03-23T01:29:33;0.47;;;0.47;;
51479;SDS011;37556;44.570;18.612;2023-03-23T01:32:00;0.35;;;0.35;;
51479;SDS011;37556;44.570;18.612;2023-03-23T01:34:26;0.75;;;0.43;;
51479;SDS011;37556;44.570;18.612;2023-03-23T01:36:52;1.75;;;1.17;;
51479;SDS011;37556;44.570;18.612;2023-03-23T01:39:18;1.00;;;1.00;;
51479;SDS011;37556;44.570;18.612;2023-03-23T01:41:44;0.40;;;0.40;;
51479;SDS011;37556;44.570;18.612;2023-03-23T01:46:43;1.38;;;0.93;;
51479;SDS011;37556;44.570;18.612;2023-03-23T01:49:17;0.50;;;0.50;;
51479;SDS011;37556;44.570;18.612;2023-03-23T01:51:48;1.17;;;1.15;;
51479;SDS011;37556;44.570;18.612;2023-03-23T01:54:15;1.02;;;0.77;;
51479;SDS011;37556;44.570;18.612;2023-03-23T01:56:47;0.28;;;0.28;;
51479;SDS011;37556;44.570;18.612;2023-03-23T01:59:14;2.65;;;0.85;;
51479;SDS011;37556;44.570;18.612;2023-03-23T02:01:41;0.47;;;0.40;;
51479;SDS011;37556;44.570;18.612;2023-03-23T02:04:10;1.42;;;1.33;;
51479;SDS011;37556;44.570;18.612;2023-03-23T02:06:37;0.40;;;0.40;;
51479;SDS011;37556;44.570;18.612;2023-03-23T02:09:03;4.07;;;1.95;;
51479;SDS011;37556;44.570;18.612;2023-03-23T02:11:33;0.57;;;0.35;;
51479;SDS011;37556;44.570;18.612;2023-03-23T02:13:59;1.40;;;1.30;;
51479;SDS011;37556;44.570;18.612;2023-03-23T02:16:29;1.63;;;1.50;;
51479;SDS011;37556;44.570;18.612;2023-03-23T02:18:58;2.28;;;1.00;;
51479;SDS011;37556;44.570;18.612;2023-03-23T02:21:39;0.82;;;0.75;;
51479;SDS011;37556;44.570;18.612;2023-03-23T02:29:11;2.30;;;1.70;;
51479;SDS011;37556;44.570;18.612;2023-03-23T02:41:54;3.38;;;1.85;;
51479;SDS011;37556;44.570;18.612;2023-03-23T02:44:22;1.58;;;0.80;;
51479;SDS011;37556;44.570;18.612;2023-03-23T02:46:50;0.68;;;0.68;;
51479;SDS011;37556;44.570;18.612;2023-03-23T02:49:17;1.50;;;1.40;;
51479;SDS011;37556;44.570;18.612;2023-03-23T02:51:44;0.82;;;0.68;;
51479;SDS011;37556;44.570;18.612;2023-03-23T02:54:11;3.80;;;3.47;;
51479;SDS011;37556;44.570;18.612;2023-03-23T02:56:39;1.48;;;0.93;;
51479;SDS011;37556;44.570;18.612;2023-03-23T02:59:06;2.67;;;2.38;;
51479;SDS011;37556;44.570;18.612;2023-03-23T03:03:58;1.25;;;1.17;;
51479;SDS011;37556;44.570;18.612;2023-03-23T03:06:33;1.27;;;1.17;;
51479;SDS011;37556;44.570;18.612;2023-03-23T03:09:05;5.40;;;2.15;;
51479;SDS011;37556;44.570;18.612;2023-03-23T03:11:34;0.40;;;0.40;;
51479;SDS011;37556;44.570;18.612;2023-03-23T03:16:29;3.83;;;2.33;;
51479;SDS011;37556;44.570;18.612;2023-03-23T03:18:57;1.25;;;1.23;;
51479;SDS011;37556;44.570;18.612;2023-03-23T03:21:27;1.58;;;1.48;;
51479;SDS011;37556;44.570;18.612;2023-03-23T03:23:54;2.47;;;2.28;;
51479;SDS011;37556;44.570;18.612;2023-03-23T03:26:24;1.45;;;1.00;;
51479;SDS011;37556;44.570;18.612;2023-03-23T03:28:52;1.13;;;1.08;;
51479;SDS011;37556;44.570;18.612;2023-03-23T03:31:20;2.50;;;0.90;;
51479;SDS011;37556;44.570;18.612;2023-03-23T03:33:47;3.58;;;3.17;;
51479;SDS011;37556;44.570;18.612;2023-03-23T03:36:20;2.55;;;2.38;;
51479;SDS011;37556;44.570;18.612;2023-03-23T03:38:49;1.45;;;1.35;;
51479;SDS011;37556;44.570;18.612;2023-03-23T03:41:16;2.42;;;1.83;;
51479;SDS011;37556;44.570;18.612;2023-03-23T03:43:42;0.68;;;0.68;;
51479;SDS011;37556;44.570;18.612;2023-03-23T03:46:08;0.95;;;0.90;;
51479;SDS011;37556;44.570;18.612;2023-03-23T03:51:01;0.65;;;0.65;;
51479;SDS011;37556;44.570;18.612;2023-03-23T03:53:28;4.25;;;2.78;;
51479;SDS011;37556;44.570;18.612;2023-03-23T03:55:55;1.25;;;0.68;;
51479;SDS011;37556;44.570;18.612;2023-03-23T03:58:22;2.97;;;1.50;;
51479;SDS011;37556;44.570;18.612;2023-03-23T04:03:14;1.92;;;1.77;;
51479;SDS011;37556;44.570;18.612;2023-03-23T04:05:41;0.52;;;0.52;;
51479;SDS011;37556;44.570;18.612;2023-03-23T04:08:09;1.95;;;1.25;;
51479;SDS011;37556;44.570;18.612;2023-03-23T04:10:36;1.33;;;1.30;;
51479;SDS011;37556;44.570;18.612;2023-03-23T04:13:02;0.63;;;0.63;;
51479;SDS011;37556;44.570;18.612;2023-03-23T04:15:29;0.90;;;0.90;;
51479;SDS011;37556;44.570;18.612;2023-03-23T04:20:22;0.10;;;0.10;;
51479;SDS011;37556;44.570;18.612;2023-03-23T04:22:48;14.40;;;1.15;;
51479;SDS011;37556;44.570;18.612;2023-03-23T04:27:40;0.25;;;0.25;;
51479;SDS011;37556;44.570;18.612;2023-03-23T04:30:11;25.05;;;1.15;;
51479;SDS011;37556;44.570;18.612;2023-03-23T04:32:40;0.65;;;0.65;;
51479;SDS011;37556;44.570;18.612;2023-03-23T04:35:07;2.10;;;1.42;;
51479;SDS011;37556;44.570;18.612;2023-03-23T04:37:34;4.05;;;1.10;;
51479;SDS011;37556;44.570;18.612;2023-03-23T04:40:01;1.10;;;1.08;;
51479;SDS011;37556;44.570;18.612;2023-03-23T04:42:33;0.65;;;0.65;;
51479;SDS011;37556;44.570;18.612;2023-03-23T04:45:00;0.93;;;0.93;;
51479;SDS011;37556;44.570;18.612;2023-03-23T04:47:27;0.57;;;0.57;;
51479;SDS011;37556;44.570;18.612;2023-03-23T04:49:55;0.45;;;0.45;;
51479;SDS011;37556;44.570;18.612;2023-03-23T04:52:21;0.35;;;0.35;;
51479;SDS011;37556;44.570;18.612;2023-03-23T04:54:50;3.15;;;0.43;;
51479;SDS011;37556;44.570;18.612;2023-03-23T04:59:42;0.90;;;0.90;;
51479;SDS011;37556;44.570;18.612;2023-03-23T05:02:09;3.25;;;1.38;;
51479;SDS011;37556;44.570;18.612;2023-03-23T05:04:36;2.10;;;1.92;;
51479;SDS011;37556;44.570;18.612;2023-03-23T05:07:02;3.67;;;3.47;;
51479;SDS011;37556;44.570;18.612;2023-03-23T05:09:29;0.68;;;0.68;;
51479;SDS011;37556;44.570;18.612;2023-03-23T05:11:55;0.45;;;0.45;;
51479;SDS011;37556;44.570;18.612;2023-03-23T05:14:22;2.83;;;1.42;;
51479;SDS011;37556;44.570;18.612;2023-03-23T05:16:49;1.38;;;1.15;;
51479;SDS011;37556;44.570;18.612;2023-03-23T05:19:17;4.10;;;2.15;;
51479;SDS011;37556;44.570;18.612;2023-03-23T05:21:43;5.90;;;4.72;;
51479;SDS011;37556;44.570;18.612;2023-03-23T05:24:09;5.13;;;4.40;;
51479;SDS011;37556;44.570;18.612;2023-03-23T05:29:02;2.60;;;1.10;;
51479;SDS011;37556;44.570;18.612;2023-03-23T05:31:28;8.18;;;3.22;;
51479;SDS011;37556;44.570;18.612;2023-03-23T05:33:54;5.10;;;2.25;;
51479;SDS011;37556;44.570;18.612;2023-03-23T05:36:20;1.80;;;0.90;;
51479;SDS011;37556;44.570;18.612;2023-03-23T05:38:48;1.92;;;1.77;;
51479;SDS011;37556;44.570;18.612;2023-03-23T05:43:40;1.27;;;1.17;;
51479;SDS011;37556;44.570;18.612;2023-03-23T05:48:33;1.30;;;1.25;;
51479;SDS011;37556;44.570;18.612;2023-03-23T05:51:00;8.70;;;1.70;;
51479;SDS011;37556;44.570;18.612;2023-03-23T05:55:52;1.92;;;1.83;;
51479;SDS011;37556;44.570;18.612;2023-03-23T05:58:18;1.27;;;0.40;;
51479;SDS011;37556;44.570;18.612;2023-03-23T06:00:44;6.55;;;4.22;;
51479;SDS011;37556;44.570;18.612;2023-03-23T06:03:11;7.57;;;4.57;;
51479;SDS011;37556;44.570;18.612;2023-03-23T06:08:03;7.38;;;4.68;;
51479;SDS011;37556;44.570;18.612;2023-03-23T06:10:30;2.50;;;2.28;;
51479;SDS011;37556;44.570;18.612;2023-03-23T06:12:57;1.40;;;1.30;;
51479;SDS011;37556;44.570;18.612;2023-03-23T06:15:23;2.35;;;1.08;;
51479;SDS011;37556;44.570;18.612;2023-03-23T06:17:52;1.05;;;0.90;;
51479;SDS011;37556;44.570;18.612;2023-03-23T06:20:21;0.63;;;0.63;;
51479;SDS011;37556;44.570;18.612;2023-03-23T06:22:49;1.25;;;1.02;;
51479;SDS011;37556;44.570;18.612;2023-03-23T06:25:16;2.03;;;1.60;;
51479;SDS011;37556;44.570;18.612;2023-03-23T06:30:10;1.70;;;1.60;;
51479;SDS011;37556;44.570;18.612;2023-03-23T06:32:37;2.75;;;1.27;;
51479;SDS011;37556;44.570;18.612;2023-03-23T06:35:03;1.92;;;1.35;;
51479;SDS011;37556;44.570;18.612;2023-03-23T06:37:29;6.45;;;1.95;;
51479;SDS011;37556;44.570;18.612;2023-03-23T06:39:56;1.98;;;1.88;;
51479;SDS011;37556;44.570;18.612;2023-03-23T06:44:51;2.08;;;1.73;;
51479;SDS011;37556;44.570;18.612;2023-03-23T06:47:18;2.22;;;1.95;;
51479;SDS011;37556;44.570;18.612;2023-03-23T06:52:10;3.03;;;2.90;;
51479;SDS011;37556;44.570;18.612;2023-03-23T06:54:37;1.10;;;1.10;;
51479;SDS011;37556;44.570;18.612;2023-03-23T06:57:15;1.15;;;1.10;;
51479;SDS011;37556;44.570;18.612;2023-03-23T06:59:56;1.73;;;1.35;;
51479;SDS011;37556;44.570;18.612;2023-03-23T07:05:37;3.50;;;1.35;;
51479;SDS011;37556;44.570;18.612;2023-03-23T07:08:04;1.40;;;1.38;;
51479;SDS011;37556;44.570;18.612;2023-03-23T07:10:30;1.80;;;1.02;;
51479;SDS011;37556;44.570;18.612;2023-03-23T07:12:58;3.20;;;2.67;;
51479;SDS011;37556;44.570;18.612;2023-03-23T07:15:25;1.70;;;1.63;;
51479;SDS011;37556;44.570;18.612;2023-03-23T07:21:10;1.42;;;1.33;;
51479;SDS011;37556;44.570;18.612;2023-03-23T07:23:36;0.98;;;0.98;;
51479;SDS011;37556;44.570;18.612;2023-03-23T07:26:03;1.52;;;1.30;;
51479;SDS011;37556;44.570;18.612;2023-03-23T07:28:29;4.00;;;1.60;;
51479;SDS011;37556;44.570;18.612;2023-03-23T07:30:55;1.52;;;1.40;;
51479;SDS011;37556;44.570;18.612;2023-03-23T07:39:10;3.78;;;3.47;;
51479;SDS011;37556;44.570;18.612;2023-03-23T07:41:37;2.45;;;2.20;;
51479;SDS011;37556;44.570;18.612;2023-03-23T07:44:15;4.72;;;3.88;;
51479;SDS011;37556;44.570;18.612;2023-03-23T07:46:41;1.67;;;1.35;;
51479;SDS011;37556;44.570;18.612;2023-03-23T07:49:08;2.15;;;2.05;;
51479;SDS011;37556;44.570;18.612;2023-03-23T07:54:44;5.13;;;1.15;;
51479;SDS011;37556;44.570;18.612;2023-03-23T07:57:11;1.55;;;0.90;;
51479;SDS011;37556;44.570;18.612;2023-03-23T08:02:59;3.08;;;2.22;;
51479;SDS011;37556;44.570;18.612;2023-03-23T08:08:30;0.35;;;0.35;;
51479;SDS011;37556;44.570;18.612;2023-03-23T08:10:57;6.22;;;3.75;;
51479;SDS011;37556;44.570;18.612;2023-03-23T08:13:26;2.10;;;2.00;;
51479;SDS011;37556;44.570;18.612;2023-03-23T08:19:18;2.53;;;2.30;;
51479;SDS011;37556;44.570;18.612;2023-03-23T08:21:44;1.88;;;1.77;;
51479;SDS011;37556;44.570;18.612;2023-03-23T08:24:11;6.80;;;1.95;;
51479;SDS011;37556;44.570;18.612;2023-03-23T08:26:38;1.73;;;0.95;;
51479;SDS011;37556;44.570;18.612;2023-03-23T08:29:05;1.08;;;0.77;;
51479;SDS011;37556;44.570;18.612;2023-03-23T08:31:31;3.05;;;1.10;;
51479;SDS011;37556;44.570;18.612;2023-03-23T08:33:59;0.95;;;0.95;;
51479;SDS011;37556;44.570;18.612;2023-03-23T08:39:10;1.10;;;1.08;;
51479;SDS011;37556;44.570;18.612;2023-03-23T08:41:36;1.35;;;0.50;;
51479;SDS011;37556;44.570;18.612;2023-03-23T08:44:03;0.75;;;0.63;;
51479;SDS011;37556;44.570;18.612;2023-03-23T08:46:41;1.25;;;0.85;;
51479;SDS011;37556;44.570;18.612;2023-03-23T08:49:07;1.02;;;1.00;;
51479;SDS011;37556;44.570;18.612;2023-03-23T08:51:34;0.88;;;0.88;;
51479;SDS011;37556;44.570;18.612;2023-03-23T08:54:01;1.45;;;1.35;;
51479;SDS011;37556;44.570;18.612;2023-03-23T09:02:08;2.35;;;1.55;;
51479;SDS011;37556;44.570;18.612;2023-03-23T09:04:40;1.27;;;1.20;;
51479;SDS011;37556;44.570;18.612;2023-03-23T09:07:14;0.88;;;0.80;;
51479;SDS011;37556;44.570;18.612;2023-03-23T09:09:40;1.42;;;1.25;;
51479;SDS011;37556;44.570;18.612;2023-03-23T09:21:29;0.68;;;0.68;;
51479;SDS011;37556;44.570;18.612;2023-03-23T09:24:07;2.40;;;2.20;;
51479;SDS011;37556;44.570;18.612;2023-03-23T09:33:05;1.08;;;1.08;;
51479;SDS011;37556;44.570;18.612;2023-03-23T09:35:35;1.10;;;1.10;;
51479;SDS011;37556;44.570;18.612;2023-03-23T09:38:03;1.40;;;0.95;;
51479;SDS011;37556;44.570;18.612;2023-03-23T09:40:37;2.17;;;1.98;;
51479;SDS011;37556;44.570;18.612;2023-03-23T09:49:17;1.90;;;1.70;;
51479;SDS011;37556;44.570;18.612;2023-03-23T09:51:47;1.23;;;1.20;;
51479;SDS011;37556;44.570;18.612;2023-03-23T09:56:43;1.13;;;0.43;;
51479;SDS011;37556;44.570;18.612;2023-03-23T10:01:48;0.85;;;0.85;;
51479;SDS011;37556;44.570;18.612;2023-03-23T10:04:41;1.25;;;1.23;;
51479;SDS011;37556;44.570;18.612;2023-03-23T10:07:12;0.17;;;0.17;;
51479;SDS011;37556;44.570;18.612;2023-03-23T10:09:45;1.35;;;1.25;;
51479;SDS011;37556;44.570;18.612;2023-03-23T10:23:08;1.17;;;0.73;;
51479;SDS011;37556;44.570;18.612;2023-03-23T10:32:15;1.13;;;1.13;;
51479;SDS011;37556;44.570;18.612;2023-03-23T10:41:33;4.13;;;1.17;;
51479;SDS011;37556;44.570;18.612;2023-03-23T10:44:01;1.23;;;1.13;;
51479;SDS011;37556;44.570;18.612;2023-03-23T10:49:01;0.30;;;0.30;;
51479;SDS011;37556;44.570;18.612;2023-03-23T10:51:36;1.00;;;1.00;;
51479;SDS011;37556;44.570;18.612;2023-03-23T10:54:07;0.43;;;0.43;;
51479;SDS011;37556;44.570;18.612;2023-03-23T10:56:42;1.10;;;1.10;;
51479;SDS011;37556;44.570;18.612;2023-03-23T11:01:39;0.43;;;0.43;;
51479;SDS011;37556;44.570;18.612;2023-03-23T11:04:12;1.17;;;1.05;;
51479;SDS011;37556;44.570;18.612;2023-03-23T11:06:42;1.73;;;1.65;;
51479;SDS011;37556;44.570;18.612;2023-03-23T11:11:48;0.70;;;0.70;;
51479;SDS011;37556;44.570;18.612;2023-03-23T11:14:28;0.70;;;0.65;;
51479;SDS011;37556;44.570;18.612;2023-03-23T11:16:56;0.40;;;0.30;;
51479;SDS011;37556;44.570;18.612;2023-03-23T11:19:37;0.73;;;0.55;;
51479;SDS011;37556;44.570;18.612;2023-03-23T11:25:02;0.93;;;0.93;;
51479;SDS011;37556;44.570;18.612;2023-03-23T11:27:32;0.43;;;0.43;;
51479;SDS011;37556;44.570;18.612;2023-03-23T11:30:09;0.63;;;0.63;;
51479;SDS011;37556;44.570;18.612;2023-03-23T11:32:36;0.73;;;0.68;;
51479;SDS011;37556;44.570;18.612;2023-03-23T11:35:04;0.38;;;0.38;;
51479;SDS011;37556;44.570;18.612;2023-03-23T11:37:43;1.92;;;1.75;;
51479;SDS011;37556;44.570;18.612;2023-03-23T11:42:38;0.93;;;0.93;;
51479;SDS011;37556;44.570;18.612;2023-03-23T11:48:38;0.43;;;0.43;;
51479;SDS011;37556;44.570;18.612;2023-03-23T11:50:53;1.10;;;0.73;;
51479;SDS011;37556;44.570;18.612;2023-03-23T11:56:15;0.40;;;0.40;;
51479;SDS011;37556;44.570;18.612;2023-03-23T11:58:43;0.17;;;0.17;;
51479;SDS011;37556;44.570;18.612;2023-03-23T12:06:06;1.35;;;1.30;;
51479;SDS011;37556;44.570;18.612;2023-03-23T12:08:47;0.60;;;0.60;;
51479;SDS011;37556;44.570;18.612;2023-03-23T12:13:48;1.35;;;0.50;;
51479;SDS011;37556;44.570;18.612;2023-03-23T12:16:22;0.30;;;0.30;;
51479;SDS011;37556;44.570;18.612;2023-03-23T12:19:03;0.30;;;0.30;;
51479;SDS011;37556;44.570;18.612;2023-03-23T12:24:10;0.93;;;0.93;;
51479;SDS011;37556;44.570;18.612;2023-03-23T12:26:54;0.73;;;0.52;;
51479;SDS011;37556;44.570;18.612;2023-03-23T12:47:52;0.10;;;0.10;;
51479;SDS011;37556;44.570;18.612;2023-03-23T12:51:24;0.10;;;0.10;;
51479;SDS011;37556;44.570;18.612;2023-03-23T12:53:20;0.50;;;0.40;;
51479;SDS011;37556;44.570;18.612;2023-03-23T12:58:25;0.10;;;0.10;;
51479;SDS011;37556;44.570;18.612;2023-03-23T13:00:54;0.15;;;0.15;;
51479;SDS011;37556;44.570;18.612;2023-03-23T13:03:30;0.40;;;0.40;;
51479;SDS011;37556;44.570;18.612;2023-03-23T13:08:46;0.45;;;0.45;;
51479;SDS011;37556;44.570;18.612;2023-03-23T13:11:25;0.75;;;0.75;;
51479;SDS011;37556;44.570;18.612;2023-03-23T13:13:55;0.47;;;0.47;;
51479;SDS011;37556;44.570;18.612;2023-03-23T13:21:44;0.45;;;0.45;;
51479;SDS011;37556;44.570;18.612;2023-03-23T13:24:13;0.32;;;0.32;;
51479;SDS011;37556;44.570;18.612;2023-03-23T13:26:40;0.35;;;0.35;;
51479;SDS011;37556;44.570;18.612;2023-03-23T13:29:14;0.47;;;0.40;;
51479;SDS011;37556;44.570;18.612;2023-03-23T13:31:43;0.90;;;0.70;;
51479;SDS011;37556;44.570;18.612;2023-03-23T13:34:25;0.80;;;0.73;;
51479;SDS011;37556;44.570;18.612;2023-03-23T13:36:55;2.05;;;1.95;;
51479;SDS011;37556;44.570;18.612;2023-03-23T13:42:34;0.32;;;0.28;;
51479;SDS011;37556;44.570;18.612;2023-03-23T13:44:55;0.10;;;0.10;;
51479;SDS011;37556;44.570;18.612;2023-03-23T13:47:25;0.08;;;0.05;;
51479;SDS011;37556;44.570;18.612;2023-03-23T13:50:03;0.40;;;0.40;;
51479;SDS011;37556;44.570;18.612;2023-03-23T13:57:50;1.73;;;0.40;;
51479;SDS011;37556;44.570;18.612;2023-03-23T14:05:30;0.10;;;0.10;;
51479;SDS011;37556;44.570;18.612;2023-03-23T14:07:59;2.35;;;1.08;;
51479;SDS011;37556;44.570;18.612;2023-03-23T14:10:36;0.40;;;0.40;;
51479;SDS011;37556;44.570;18.612;2023-03-23T14:13:04;1.00;;;1.00;;
51479;SDS011;37556;44.570;18.612;2023-03-23T14:15:37;4.18;;;0.82;;
51479;SDS011;37556;44.570;18.612;2023-03-23T14:18:03;2.55;;;1.25;;
51479;SDS011;37556;44.570;18.612;2023-03-23T14:20:31;2.05;;;1.42;;
51479;SDS011;37556;44.570;18.612;2023-03-23T14:22:58;0.30;;;0.30;;
51479;SDS011;37556;44.570;18.612;2023-03-23T14:25:26;0.30;;;0.30;;
51479;SDS011;37556;44.570;18.612;2023-03-23T14:27:53;1.77;;;1.13;;
51479;SDS011;37556;44.570;18.612;2023-03-23T14:30:20;0.57;;;0.57;;
51479;SDS011;37556;44.570;18.612;2023-03-23T14:32:47;1.05;;;0.95;;
51479;SDS011;37556;44.570;18.612;2023-03-23T14:37:41;1.85;;;1.70;;
51479;SDS011;37556;44.570;18.612;2023-03-23T14:40:09;1.50;;;0.70;;
51479;SDS011;37556;44.570;18.612;2023-03-23T14:42:38;1.45;;;1.30;;
51479;SDS011;37556;44.570;18.612;2023-03-23T14:45:04;0.90;;;0.90;;
51479;SDS011;37556;44.570;18.612;2023-03-23T14:47:33;2.25;;;1.08;;
51479;SDS011;37556;44.570;18.612;2023-03-23T14:50:01;1.17;;;1.15;;
51479;SDS011;37556;44.570;18.612;2023-03-23T14:52:29;1.00;;;1.00;;
51479;SDS011;37556;44.570;18.612;2023-03-23T14:55:11;0.35;;;0.35;;
51479;SDS011;37556;44.570;18.612;2023-03-23T14:57:39;0.77;;;0.77;;
51479;SDS011;37556;44.570;18.612;2023-03-23T15:00:11;0.57;;;0.57;;
51479;SDS011;37556;44.570;18.612;2023-03-23T15:02:38;0.55;;;0.55;;
51479;SDS011;37556;44.570;18.612;2023-03-23T15:05:09;1.48;;;1.25;;
51479;SDS011;37556;44.570;18.612;2023-03-23T15:07:36;0.63;;;0.63;;
51479;SDS011;37556;44.570;18.612;2023-03-23T15:10:07;8.30;;;1.15;;
51479;SDS011;37556;44.570;18.612;2023-03-23T15:12:33;0.20;;;0.20;;
51479;SDS011;37556;44.570;18.612;2023-03-23T15:15:07;0.55;;;0.55;;
51479;SDS011;37556;44.570;18.612;2023-03-23T15:17:40;0.70;;;0.63;;
51479;SDS011;37556;44.570;18.612;2023-03-23T15:20:28;3.08;;;1.17;;
51479;SDS011;37556;44.570;18.612;2023-03-23T15:22:55;4.30;;;0.70;;
51479;SDS011;37556;44.570;18.612;2023-03-23T15:25:23;1.27;;;0.75;;
51479;SDS011;37556;44.570;18.612;2023-03-23T15:27:50;1.42;;;1.35;;
51479;SDS011;37556;44.570;18.612;2023-03-23T15:32:51;1.55;;;1.48;;
51479;SDS011;37556;44.570;18.612;2023-03-23T15:35:18;0.50;;;0.50;;
51479;SDS011;37556;44.570;18.612;2023-03-23T15:37:48;0.25;;;0.25;;
51479;SDS011;37556;44.570;18.612;2023-03-23T15:40:15;2.47;;;1.35;;
51479;SDS011;37556;44.570;18.612;2023-03-23T15:42:42;0.30;;;0.30;;
51479;SDS011;37556;44.570;18.612;2023-03-23T15:52:39;5.10;;;2.37;;
51479;SDS011;37556;44.570;18.612;2023-03-23T15:57:43;0.10;;;0.10;;
51479;SDS011;37556;44.570;18.612;2023-03-23T16:00:10;1.80;;;1.67;;
51479;SDS011;37556;44.570;18.612;2023-03-23T16:02:36;0.85;;;0.85;;
51479;SDS011;37556;44.570;18.612;2023-03-23T16:05:02;0.75;;;0.75;;
51479;SDS011;37556;44.570;18.612;2023-03-23T16:07:29;1.55;;;1.45;;
51479;SDS011;37556;44.570;18.612;2023-03-23T16:09:55;1.48;;;1.48;;
51479;SDS011;37556;44.570;18.612;2023-03-23T16:12:21;1.38;;;1.38;;
51479;SDS011;37556;44.570;18.612;2023-03-23T16:14:47;1.65;;;1.55;;
51479;SDS011;37556;44.570;18.612;2023-03-23T16:17:15;0.88;;;0.88;;
51479;SDS011;37556;44.570;18.612;2023-03-23T16:19:42;3.63;;;1.50;;
51479;SDS011;37556;44.570;18.612;2023-03-23T16:22:08;1.05;;;0.90;;
51479;SDS011;37556;44.570;18.612;2023-03-23T16:24:35;2.30;;;2.20;;
51479;SDS011;37556;44.570;18.612;2023-03-23T16:27:01;10.73;;;1.85;;
51479;SDS011;37556;44.570;18.612;2023-03-23T16:29:27;2.47;;;1.85;;
51479;SDS011;37556;44.570;18.612;2023-03-23T16:31:53;1.20;;;1.10;;
51479;SDS011;37556;44.570;18.612;2023-03-23T16:34:19;1.42;;;0.70;;
51479;SDS011;37556;44.570;18.612;2023-03-23T16:36:46;1.05;;;0.80;;
51479;SDS011;37556;44.570;18.612;2023-03-23T16:39:12;0.65;;;0.65;;
51479;SDS011;37556;44.570;18.612;2023-03-23T16:41:39;1.35;;;1.10;;
51479;SDS011;37556;44.570;18.612;2023-03-23T16:44:06;2.95;;;2.00;;
51479;SDS011;37556;44.570;18.612;2023-03-23T16:46:32;2.13;;;1.33;;
51479;SDS011;37556;44.570;18.612;2023-03-23T16:48:58;3.47;;;2.33;;
51479;SDS011;37556;44.570;18.612;2023-03-23T16:51:24;1.55;;;1.50;;
51479;SDS011;37556;44.570;18.612;2023-03-23T16:53:50;5.28;;;2.40;;
51479;SDS011;37556;44.570;18.612;2023-03-23T16:56:16;1.13;;;1.13;;
51479;SDS011;37556;44.570;18.612;2023-03-23T16:58:42;2.75;;;1.95;;
51479;SDS011;37556;44.570;18.612;2023-03-23T17:01:09;3.95;;;2.85;;
51479;SDS011;37556;44.570;18.612;2023-03-23T17:03:35;1.10;;;1.10;;
51479;SDS011;37556;44.570;18.612;2023-03-23T17:06:01;1.65;;;1.33;;
51479;SDS011;37556;44.570;18.612;2023-03-23T17:08:28;2.72;;;1.17;;
51479;SDS011;37556;44.570;18.612;2023-03-23T17:10:54;11.30;;;4.03;;
51479;SDS011;37556;44.570;18.612;2023-03-23T17:13:21;11.48;;;5.65;;
51479;SDS011;37556;44.570;18.612;2023-03-23T17:15:50;5.45;;;4.95;;
51479;SDS011;37556;44.570;18.612;2023-03-23T17:18:17;4.53;;;4.13;;
51479;SDS011;37556;44.570;18.612;2023-03-23T17:23:09;4.25;;;2.72;;
51479;SDS011;37556;44.570;18.612;2023-03-23T17:28:01;5.75;;;3.00;;
51479;SDS011;37556;44.570;18.612;2023-03-23T17:32:53;0.77;;;0.77;;
51479;SDS011;37556;44.570;18.612;2023-03-23T17:35:19;1.58;;;1.40;;
51479;SDS011;37556;44.570;18.612;2023-03-23T17:37:46;5.70;;;1.77;;
51479;SDS011;37556;44.570;18.612;2023-03-23T17:42:38;5.38;;;4.20;;
51479;SDS011;37556;44.570;18.612;2023-03-23T17:45:05;5.88;;;5.30;;
51479;SDS011;37556;44.570;18.612;2023-03-23T17:47:32;5.20;;;4.00;;
51479;SDS011;37556;44.570;18.612;2023-03-23T17:49:58;9.05;;;7.22;;
51479;SDS011;37556;44.570;18.612;2023-03-23T17:52:24;14.05;;;7.45;;
51479;SDS011;37556;44.570;18.612;2023-03-23T17:54:51;4.88;;;4.57;;
51479;SDS011;37556;44.570;18.612;2023-03-23T17:57:18;11.07;;;6.60;;
51479;SDS011;37556;44.570;18.612;2023-03-23T17:59:44;5.13;;;4.60;;
51479;SDS011;37556;44.570;18.612;2023-03-23T18:04:38;13.68;;;6.80;;
51479;SDS011;37556;44.570;18.612;2023-03-23T18:07:04;10.27;;;7.80;;
51479;SDS011;37556;44.570;18.612;2023-03-23T18:11:57;15.48;;;4.93;;
51479;SDS011;37556;44.570;18.612;2023-03-23T18:14:23;5.25;;;4.53;;
51479;SDS011;37556;44.570;18.612;2023-03-23T18:16:49;3.00;;;2.35;;
51479;SDS011;37556;44.570;18.612;2023-03-23T18:19:17;7.50;;;4.53;;
51479;SDS011;37556;44.570;18.612;2023-03-23T18:21:43;4.18;;;3.40;;
51479;SDS011;37556;44.570;18.612;2023-03-23T18:24:09;5.63;;;3.65;;
51479;SDS011;37556;44.570;18.612;2023-03-23T18:26:36;7.88;;;5.05;;
51479;SDS011;37556;44.570;18.612;2023-03-23T18:31:28;5.15;;;4.15;;
51479;SDS011;37556;44.570;18.612;2023-03-23T18:33:54;6.15;;;3.05;;
51479;SDS011;37556;44.570;18.612;2023-03-23T18:38:46;4.95;;;3.08;;
51479;SDS011;37556;44.570;18.612;2023-03-23T18:41:13;5.22;;;3.63;;
51479;SDS011;37556;44.570;18.612;2023-03-23T18:43:40;5.03;;;2.35;;
51479;SDS011;37556;44.570;18.612;2023-03-23T18:46:06;3.58;;;3.13;;
51479;SDS011;37556;44.570;18.612;2023-03-23T18:48:33;3.60;;;3.17;;
51479;SDS011;37556;44.570;18.612;2023-03-23T18:51:00;3.75;;;2.50;;